Rushville, OH

4:52 PM EST on February 08, 2016 (GMT -0500)
Northern Lancaster Area | | Change Station
CLOSE
Current Station
Personal Weather Station
Location: Lancaster, OH
Elevation: 1000 ft
Nearby Weather Stations
Active Advisory: Winter Weather Advisory

Elev 1000 ft 39.76 °N, 82.57 °W | Updated 13 seconds ago

Overcast
Overcast
34.3 °F
Feels Like 34 °F
N
2.0
Wind Variable Wind from West
Gusts 4.0 mph

Today
High -- | Low -- °F
--% Chance of Precip.
Yesterday
High -- | Low -- °F
Precip. -- in
Pressure 29.62 in
Visibility 10.0 miles
Clouds Scattered Clouds 600 ft
Mostly Cloudy 1000 ft
Overcast 2100 ft
Windchill 34 °F
Dew Point 34 °F
Humidity 99%
Rainfall 0.27 in
Snow Depth Not available.
7:31 AM 5:57 PM
New Moon, 0% visible
SPECI KLHQ 082127Z AUTO 28005KT 10SM SCT006 BKN010 OVC021 02/01 A2962 RMK AO2 CIG 008V012 T00220006
Pressure 29.62 in
Visibility 10.0 miles
Clouds Scattered Clouds 600 ft
Mostly Cloudy 1000 ft
Overcast 2100 ft
Windchill 34 °F
Dew Point 34 °F
Humidity 99%
Rainfall 0.27 in
Snow Depth Not available.
7:31 AM 5:57 PM
New Moon, 0% visible
SPECI KLHQ 082127Z AUTO 28005KT 10SM SCT006 BKN010 OVC021 02/01 A2962 RMK AO2 CIG 008V012 T00220006

10-Day Weather Forecast

Almanac

Astronomy

Feb. 08, 2016 Rise Set
Actual Time
Civil Twilight
Nautical Twilight
Astronomical Twilight
Moon
Length of Visible Light
Length of Day
Tomorrow will be .
, % of the Moon is Illuminated

Today's Extremes

State Highs State Lows

Community

WunderPhotos

Upload Photos

1,891,512 photos uploaded!

WunderBlog® & News

Nearby

Air Quality

  Air Quality AQ Index Pollutant
Not available.

Snow Depth

Station Depth Elevation

Earthquake Activity

City Distance Mag. Time & Date
Minimum magnitude displayed is 2.5.

Coastal Water Temperatures

Place Temperature

Stations

Nearby Weather Stations

Station Location Temp. Windchill Dew Point Humidity Wind Precip. Elev Updated Type
                   

Watches & Warnings

Winter Weather Advisory
Issued: 4:13 PM EST Feb. 8, 2016 – National Weather Service

... Winter Weather Advisory remains in effect until 6 am EST
Wednesday...

* hazard types... snow showers.

* Accumulations... snow accumulation of 2 to 4 inches.

* Timing... snow and rain showers will transition over to all snow
showers this evening. Occasional snow showers will then
continue tonight through Tuesday night.

* Impacts... travel difficulties are expected due to reduced
visibilities and snow accumulations.

Precautionary/preparedness actions...

Remember... a Winter Weather Advisory for snow means that periods
of snow will cause primarily travel difficulties. Be prepared for
snow covered roads and limited visibilities... and use caution
while driving. Stay tuned to NOAA Weather Radio or your favorite
source of information for the latest updates. Additional details
can also be found at www.Weather.Gov/iln as well as on our
facebook and twitter pages.